createdAt,value
2024-05-09T00:00:38.582Z,0.75
2024-05-09T00:01:42.439Z,0.70
2024-05-09T00:02:44.431Z,0.70
2024-05-09T00:03:47.186Z,0.80
2024-05-09T00:04:49.298Z,0.70
2024-05-09T00:05:51.193Z,0.60
2024-05-09T00:06:53.032Z,0.43
2024-05-09T00:07:54.983Z,0.70
2024-05-09T00:08:56.813Z,0.60
2024-05-09T00:09:58.627Z,0.50
2024-05-09T00:11:00.673Z,0.80
2024-05-09T00:12:02.643Z,0.68
2024-05-09T00:13:04.918Z,0.57
2024-05-09T00:14:09.619Z,0.60
2024-05-09T00:15:11.486Z,0.80
2024-05-09T00:16:13.357Z,0.60
2024-05-09T00:17:15.403Z,0.70
2024-05-09T00:18:17.656Z,0.60
2024-05-09T00:19:19.925Z,0.63
2024-05-09T00:20:28.114Z,0.60
2024-05-09T00:21:35.336Z,0.43
2024-05-09T00:22:37.157Z,0.60
2024-05-09T00:23:39.062Z,0.70
2024-05-09T00:24:40.941Z,0.68
2024-05-09T00:25:44.129Z,0.60
2024-05-09T00:26:46.184Z,0.70
2024-05-09T00:27:48.007Z,0.55
2024-05-09T00:28:49.933Z,0.60
2024-05-09T00:29:51.752Z,0.70
2024-05-09T00:30:53.678Z,0.70
2024-05-09T00:31:55.730Z,0.50
2024-05-09T00:32:57.857Z,0.80
2024-05-09T00:34:00.121Z,0.70
2024-05-09T00:35:02.085Z,0.95
2024-05-09T00:36:04.172Z,0.73
2024-05-09T00:37:06.090Z,0.60
2024-05-09T00:38:08.389Z,0.60
2024-05-09T00:39:10.381Z,0.70
2024-05-09T00:40:18.751Z,0.70
2024-05-09T00:41:29.024Z,0.60
2024-05-09T00:42:30.985Z,0.80
2024-05-09T00:43:33.796Z,0.80
2024-05-09T00:44:35.690Z,0.70
2024-05-09T00:45:37.627Z,0.60
2024-05-09T00:46:39.962Z,0.80
2024-05-09T00:47:43.442Z,0.60
2024-05-09T00:48:45.611Z,0.60
2024-05-09T00:49:48.766Z,0.50
2024-05-09T00:50:51.364Z,0.60
2024-05-09T00:51:55.599Z,0.60
2024-05-09T00:52:57.687Z,0.50
2024-05-09T00:53:59.845Z,0.90
2024-05-09T00:55:01.961Z,0.80
2024-05-09T00:56:05.084Z,0.80
2024-05-09T00:57:07.175Z,0.55
2024-05-09T00:58:12.284Z,0.63
2024-05-09T00:59:14.228Z,0.50
2024-05-09T01:00:26.103Z,0.68
2024-05-09T01:01:33.179Z,0.60
2024-05-09T01:02:35.543Z,0.80
2024-05-09T01:03:37.795Z,0.57
2024-05-09T01:04:39.766Z,0.70
2024-05-09T01:05:43.023Z,0.60
2024-05-09T01:06:45.151Z,0.60
2024-05-09T01:07:47.042Z,0.63
2024-05-09T01:08:49.054Z,0.68
2024-05-09T01:09:50.924Z,0.68
2024-05-09T01:10:52.968Z,0.60
2024-05-09T01:11:55.084Z,0.68
2024-05-09T01:12:57.106Z,0.55
2024-05-09T01:13:59.062Z,0.63
2024-05-09T01:15:00.908Z,0.77
2024-05-09T01:16:03.352Z,0.60
2024-05-09T01:17:07.397Z,0.63
2024-05-09T01:18:13.462Z,0.60
2024-05-09T01:19:23.741Z,0.80
2024-05-09T01:20:36.849Z,0.60
2024-05-09T01:21:43.992Z,0.70
2024-05-09T01:22:47.298Z,0.50
2024-05-09T01:23:49.216Z,0.63
2024-05-09T01:24:52.138Z,0.60
2024-05-09T01:25:54.094Z,0.70
2024-05-09T01:26:55.961Z,0.82
2024-05-09T01:27:57.798Z,0.75
2024-05-09T01:28:59.707Z,0.50
2024-05-09T01:30:01.570Z,0.80
2024-05-09T01:31:03.947Z,0.82
2024-05-09T01:32:06.236Z,0.80
2024-05-09T01:33:10.490Z,0.75
2024-05-09T01:34:13.852Z,0.80
2024-05-09T01:35:15.921Z,0.85
2024-05-09T01:36:18.430Z,0.65
2024-05-09T01:37:20.388Z,1.10
2024-05-09T01:38:22.313Z,0.80
2024-05-09T01:39:24.253Z,0.77
2024-05-09T01:40:36.173Z,0.52
2024-05-09T01:41:40.921Z,0.63
2024-05-09T01:42:42.851Z,0.88
2024-05-09T01:43:44.792Z,0.70
2024-05-09T01:44:47.029Z,0.70
2024-05-09T01:45:48.900Z,0.88
2024-05-09T01:46:50.793Z,0.80
2024-05-09T01:47:52.914Z,0.70
2024-05-09T01:48:55.249Z,0.47
2024-05-09T01:49:57.501Z,0.75
2024-05-09T01:50:59.507Z,0.80
2024-05-09T01:52:01.402Z,0.95
2024-05-09T01:53:03.399Z,0.70
2024-05-09T01:54:06.344Z,0.65
2024-05-09T01:55:08.379Z,0.63
2024-05-09T01:56:10.789Z,0.70
2024-05-09T01:57:12.752Z,0.60
2024-05-09T01:58:14.644Z,0.70
2024-05-09T01:59:16.528Z,0.70
2024-05-09T02:00:26.367Z,0.60
2024-05-09T02:01:56.039Z,0.60
2024-05-09T02:02:59.727Z,0.70
2024-05-09T02:04:02.090Z,0.50
2024-05-09T02:05:04.552Z,0.70
2024-05-09T02:06:06.783Z,0.90
2024-05-09T02:07:08.735Z,0.60
2024-05-09T02:08:15.296Z,0.82
2024-05-09T02:09:17.354Z,0.80
2024-05-09T02:10:26.156Z,0.85
2024-05-09T02:11:40.460Z,0.70
2024-05-09T02:12:42.384Z,0.60
2024-05-09T02:13:44.273Z,0.75
2024-05-09T02:14:46.204Z,0.60
2024-05-09T02:15:52.369Z,0.80
2024-05-09T02:16:54.348Z,0.70
2024-05-09T02:17:56.573Z,0.75
2024-05-09T02:18:58.864Z,0.60
2024-05-09T02:20:00.805Z,0.90
2024-05-09T02:21:02.755Z,0.65
2024-05-09T02:22:04.811Z,0.80
2024-05-09T02:23:08.502Z,0.82
2024-05-09T02:24:10.477Z,0.60
2024-05-09T02:25:12.822Z,0.95
2024-05-09T02:26:14.753Z,0.60
2024-05-09T02:27:16.671Z,0.68
2024-05-09T02:28:21.119Z,0.80
2024-05-09T02:29:23.037Z,0.60
2024-05-09T02:30:34.936Z,0.60
2024-05-09T02:31:41.443Z,0.68
2024-05-09T02:32:43.561Z,0.60
2024-05-09T02:33:46.119Z,0.60
2024-05-09T02:34:48.360Z,0.70
2024-05-09T02:35:50.284Z,0.80
2024-05-09T02:36:56.133Z,0.80
2024-05-09T02:37:58.046Z,0.70
2024-05-09T02:38:59.898Z,0.50
2024-05-09T02:40:01.746Z,0.70
2024-05-09T02:41:03.901Z,0.70
2024-05-09T02:42:05.889Z,0.73
2024-05-09T02:43:10.285Z,0.70
2024-05-09T02:44:13.322Z,0.60
2024-05-09T02:45:15.262Z,0.65
2024-05-09T02:46:17.132Z,0.50
2024-05-09T02:47:19.132Z,0.52
2024-05-09T02:48:21.450Z,0.93
2024-05-09T02:49:23.494Z,0.52
2024-05-09T02:50:33.792Z,0.98
2024-05-09T02:51:40.101Z,0.47
2024-05-09T02:52:41.944Z,0.60
2024-05-09T02:53:43.858Z,0.60
2024-05-09T02:54:45.834Z,0.80
2024-05-09T02:55:47.946Z,0.60
2024-05-09T02:56:49.856Z,0.70
2024-05-09T02:57:51.685Z,0.63
2024-05-09T02:58:53.605Z,0.60
2024-05-09T02:59:55.488Z,0.63
2024-05-09T03:00:57.441Z,0.70
2024-05-09T03:01:59.391Z,0.65
2024-05-09T03:03:01.630Z,0.77
2024-05-09T03:04:03.832Z,0.98
2024-05-09T03:05:06.023Z,0.70
2024-05-09T03:06:07.909Z,0.80
2024-05-09T03:07:09.760Z,0.63
2024-05-09T03:08:11.962Z,0.60
2024-05-09T03:09:13.924Z,0.50
2024-05-09T03:10:22.271Z,0.60
2024-05-09T03:11:27.744Z,0.55
2024-05-09T03:12:29.687Z,0.70
2024-05-09T03:13:31.948Z,0.60
2024-05-09T03:14:33.803Z,0.75
2024-05-09T03:15:35.884Z,0.60
2024-05-09T03:16:38.654Z,0.65
2024-05-09T03:17:41.582Z,0.65
2024-05-09T03:18:44.365Z,0.93
2024-05-09T03:19:46.655Z,0.90
2024-05-09T03:20:48.653Z,0.70
2024-05-09T03:21:50.473Z,0.82
2024-05-09T03:22:55.493Z,0.80
2024-05-09T03:23:58.642Z,0.60
2024-05-09T03:25:00.689Z,0.73
2024-05-09T03:26:02.574Z,0.88
2024-05-09T03:27:04.593Z,0.90
2024-05-09T03:28:06.691Z,0.80
2024-05-09T03:29:08.617Z,0.70
2024-05-09T03:30:15.433Z,0.90
2024-05-09T03:31:20.396Z,0.75
2024-05-09T03:32:22.328Z,0.70
2024-05-09T03:33:24.582Z,1.00
2024-05-09T03:34:26.725Z,0.90
2024-05-09T03:35:28.663Z,0.95
2024-05-09T03:36:30.552Z,0.88
2024-05-09T03:37:32.995Z,0.80
2024-05-09T03:38:38.880Z,0.90
2024-05-09T03:39:40.730Z,1.00
2024-05-09T03:40:47.045Z,0.95
2024-05-09T03:41:49.054Z,1.00
2024-05-09T03:42:50.861Z,0.88
2024-05-09T03:43:52.781Z,0.80
2024-05-09T03:44:54.629Z,0.80
2024-05-09T03:45:56.896Z,1.02
2024-05-09T03:46:58.955Z,0.70
2024-05-09T03:48:01.019Z,1.00
2024-05-09T03:49:03.027Z,0.75
2024-05-09T03:50:05.897Z,0.70
2024-05-09T03:51:08.027Z,0.70
2024-05-09T03:52:09.948Z,0.50
2024-05-09T03:53:13.386Z,0.90
2024-05-09T03:54:15.329Z,0.70
2024-05-09T03:55:17.480Z,0.65
2024-05-09T03:56:19.422Z,0.63
2024-05-09T03:57:21.302Z,0.68
2024-05-09T03:58:23.182Z,0.80
2024-05-09T03:59:25.068Z,0.88
2024-05-09T04:00:35.390Z,0.70
2024-05-09T04:01:40.660Z,0.63
2024-05-09T04:02:43.853Z,0.90
2024-05-09T04:03:48.527Z,0.77
2024-05-09T04:04:50.715Z,0.80
2024-05-09T04:05:52.736Z,1.02
2024-05-09T04:06:54.691Z,0.73
2024-05-09T04:07:56.549Z,0.75
2024-05-09T04:08:58.390Z,0.68
2024-05-09T04:10:00.255Z,0.65
2024-05-09T04:11:02.338Z,0.90
2024-05-09T04:12:07.427Z,0.85
2024-05-09T04:13:11.182Z,0.90
2024-05-09T04:14:13.090Z,0.70
2024-05-09T04:15:15.338Z,0.65
2024-05-09T04:16:17.275Z,0.77
2024-05-09T04:17:19.155Z,0.85
2024-05-09T04:18:21.144Z,0.75
2024-05-09T04:19:23.259Z,0.82
2024-05-09T04:20:35.841Z,0.80
2024-05-09T04:21:41.123Z,0.70
2024-05-09T04:22:43.057Z,0.82
2024-05-09T04:23:45.021Z,0.80
2024-05-09T04:24:47.673Z,0.70
2024-05-09T04:25:49.540Z,0.75
2024-05-09T04:26:51.477Z,0.70
2024-05-09T04:27:55.970Z,0.80
2024-05-09T04:28:58.308Z,0.80
2024-05-09T04:30:00.385Z,0.85
2024-05-09T04:31:02.379Z,0.90
2024-05-09T04:32:05.487Z,0.85
2024-05-09T04:33:09.968Z,0.80
2024-05-09T04:34:13.863Z,1.10
2024-05-09T04:35:18.427Z,0.80
2024-05-09T04:36:20.364Z,1.00
2024-05-09T04:37:22.162Z,0.65
2024-05-09T04:38:24.148Z,0.73
2024-05-09T04:39:26.121Z,1.15
2024-05-09T04:40:33.386Z,0.63
2024-05-09T04:41:38.825Z,0.80
2024-05-09T04:42:43.876Z,0.90
2024-05-09T04:43:45.956Z,0.90
2024-05-09T04:44:48.472Z,0.70
2024-05-09T04:45:50.380Z,1.00
2024-05-09T04:46:52.281Z,0.85
2024-05-09T04:47:54.946Z,0.80
2024-05-09T04:48:57.064Z,0.95
2024-05-09T04:49:59.305Z,0.88
2024-05-09T04:51:02.126Z,0.80
2024-05-09T04:52:04.305Z,0.80
2024-05-09T04:53:08.762Z,0.70
2024-05-09T04:54:22.219Z,0.73
2024-05-09T04:55:32.616Z,0.60
2024-05-09T04:56:34.525Z,0.75
2024-05-09T04:57:36.404Z,0.63
2024-05-09T04:58:38.292Z,0.60
2024-05-09T04:59:40.126Z,0.68
2024-05-09T05:00:42.157Z,0.70
2024-05-09T05:01:44.141Z,0.65
2024-05-09T05:02:46.128Z,0.63
2024-05-09T05:03:48.211Z,0.65
2024-05-09T05:04:50.288Z,0.60
2024-05-09T05:05:52.367Z,0.60
2024-05-09T05:06:54.259Z,0.88
2024-05-09T05:07:56.171Z,0.50
2024-05-09T05:08:58.228Z,0.82
2024-05-09T05:10:00.183Z,0.68
2024-05-09T05:11:02.195Z,0.60
2024-05-09T05:12:24.364Z,0.63
2024-05-09T05:13:31.678Z,0.60
2024-05-09T05:14:33.883Z,0.75
2024-05-09T05:15:35.737Z,0.80
2024-05-09T05:16:37.565Z,0.70
2024-05-09T05:17:39.617Z,0.70
2024-05-09T05:18:41.715Z,0.40
2024-05-09T05:19:43.659Z,0.60
2024-05-09T05:20:45.882Z,0.63
2024-05-09T05:21:47.810Z,0.70
2024-05-09T05:22:49.677Z,0.50
2024-05-09T05:23:51.562Z,0.50
2024-05-09T05:24:53.448Z,0.52
2024-05-09T05:25:55.690Z,0.70
2024-05-09T05:26:57.717Z,0.60
2024-05-09T05:27:59.549Z,0.50
2024-05-09T05:29:01.426Z,0.60
2024-05-09T05:30:04.615Z,0.35
2024-05-09T05:31:07.706Z,0.57
2024-05-09T05:32:09.685Z,0.73
2024-05-09T05:33:13.678Z,0.65
2024-05-09T05:34:15.730Z,0.60
2024-05-09T05:35:17.659Z,0.50
2024-05-09T05:36:19.566Z,0.57
2024-05-09T05:37:21.400Z,0.80
2024-05-09T05:38:27.265Z,0.60
2024-05-09T05:39:30.264Z,0.50
2024-05-09T05:40:36.686Z,0.70
2024-05-09T05:41:40.071Z,0.82
2024-05-09T05:42:42.099Z,0.68
2024-05-09T05:43:44.147Z,0.57
2024-05-09T05:44:46.141Z,0.80
2024-05-09T05:45:48.046Z,0.50
2024-05-09T05:46:50.967Z,0.70
2024-05-09T05:47:54.664Z,0.47
2024-05-09T05:48:56.861Z,0.65
2024-05-09T05:49:58.833Z,0.65
2024-05-09T05:51:04.209Z,0.40
2024-05-09T05:52:06.819Z,0.47
2024-05-09T05:53:10.434Z,0.40
2024-05-09T05:54:12.531Z,0.52
2024-05-09T05:55:14.530Z,0.50
2024-05-09T05:56:16.629Z,0.60
2024-05-09T05:57:19.186Z,0.55
2024-05-09T05:58:21.660Z,0.65
2024-05-09T05:59:24.186Z,0.95
2024-05-09T06:00:34.128Z,0.50
2024-05-09T06:01:41.739Z,0.60
2024-05-09T06:02:43.903Z,0.55
2024-05-09T06:03:45.988Z,0.60
2024-05-09T06:04:48.095Z,0.55
2024-05-09T06:05:50.070Z,0.52
2024-05-09T06:06:52.491Z,0.70
2024-05-09T06:07:54.478Z,0.70
2024-05-09T06:08:56.403Z,0.60
2024-05-09T06:09:58.260Z,0.52
2024-05-09T06:11:00.253Z,0.68
2024-05-09T06:12:02.283Z,0.70
2024-05-09T06:13:04.447Z,0.60
2024-05-09T06:14:06.414Z,0.50
2024-05-09T06:15:08.774Z,0.50
2024-05-09T06:16:10.598Z,0.60
2024-05-09T06:17:12.544Z,0.77
2024-05-09T06:18:15.601Z,0.60
2024-05-09T06:19:19.464Z,0.45
2024-05-09T06:20:31.265Z,0.50
2024-05-09T06:21:37.212Z,0.60
2024-05-09T06:22:39.101Z,0.60
2024-05-09T06:23:48.286Z,0.50
2024-05-09T06:24:50.231Z,0.43
2024-05-09T06:25:52.502Z,0.60
2024-05-09T06:26:54.392Z,0.60
2024-05-09T06:27:56.206Z,0.63
2024-05-09T06:28:59.000Z,0.70
2024-05-09T06:30:00.841Z,0.50
2024-05-09T06:31:03.073Z,0.40
2024-05-09T06:32:05.901Z,0.50
2024-05-09T06:33:10.617Z,0.50
2024-05-09T06:34:14.215Z,0.38
2024-05-09T06:35:16.294Z,0.55
2024-05-09T06:36:19.023Z,0.70
2024-05-09T06:37:20.928Z,0.70
2024-05-09T06:38:22.854Z,0.70
2024-05-09T06:39:24.938Z,0.60
2024-05-09T06:40:35.990Z,0.30
2024-05-09T06:41:40.683Z,0.50
2024-05-09T06:42:42.732Z,0.40
2024-05-09T06:43:44.603Z,0.80
2024-05-09T06:44:46.704Z,0.63
2024-05-09T06:45:49.623Z,0.73
2024-05-09T06:46:51.644Z,0.80
2024-05-09T06:47:53.816Z,0.90
2024-05-09T06:48:56.965Z,0.70
2024-05-09T06:49:58.933Z,0.80
2024-05-09T06:51:01.030Z,0.50
2024-05-09T06:52:03.140Z,0.60
2024-05-09T06:53:05.494Z,0.85
2024-05-09T06:54:08.627Z,0.85
2024-05-09T06:55:10.444Z,0.43
2024-05-09T06:56:12.401Z,0.47
2024-05-09T06:57:14.272Z,0.50
2024-05-09T06:58:16.215Z,0.50
2024-05-09T06:59:18.176Z,0.60
2024-05-09T07:00:27.521Z,0.85
2024-05-09T07:01:36.977Z,0.50
2024-05-09T07:02:39.149Z,0.57
2024-05-09T07:03:41.856Z,0.68
2024-05-09T07:04:43.867Z,0.70
2024-05-09T07:05:46.816Z,0.60
2024-05-09T07:06:49.651Z,0.82
2024-05-09T07:07:51.521Z,0.60
2024-05-09T07:08:53.955Z,0.50
2024-05-09T07:09:55.894Z,0.77
2024-05-09T07:10:57.867Z,0.90
2024-05-09T07:11:59.867Z,0.60
2024-05-09T07:13:01.839Z,0.60
2024-05-09T07:14:03.948Z,0.70
2024-05-09T07:15:05.971Z,0.47
2024-05-09T07:16:07.806Z,0.50
2024-05-09T07:17:09.744Z,0.60
2024-05-09T07:18:17.665Z,0.60
2024-05-09T07:19:20.760Z,0.43
2024-05-09T07:20:31.860Z,0.52
2024-05-09T07:21:36.604Z,0.82
2024-05-09T07:22:38.577Z,0.82
2024-05-09T07:23:41.398Z,0.63
2024-05-09T07:24:44.376Z,0.88
2024-05-09T07:25:46.393Z,0.68
2024-05-09T07:26:48.479Z,0.60
2024-05-09T07:27:50.323Z,0.65
2024-05-09T07:28:52.242Z,0.95
2024-05-09T07:29:54.719Z,0.63
2024-05-09T07:30:56.540Z,0.80
2024-05-09T07:31:58.582Z,0.65
2024-05-09T07:33:01.002Z,0.70
2024-05-09T07:34:03.417Z,0.75
2024-05-09T07:35:05.680Z,0.50
2024-05-09T07:36:07.761Z,0.90
2024-05-09T07:37:12.825Z,0.70
2024-05-09T07:38:14.957Z,0.60
2024-05-09T07:39:17.010Z,0.70
2024-05-09T07:40:28.532Z,0.80
2024-05-09T07:41:37.695Z,0.70
2024-05-09T07:42:39.742Z,0.45
2024-05-09T07:43:41.581Z,0.98
2024-05-09T07:44:43.495Z,0.80
2024-05-09T07:45:52.419Z,0.60
2024-05-09T07:53:30.349Z,0.40
2024-05-09T07:53:47.266Z,0.47
2024-05-09T07:54:52.887Z,0.50
2024-05-09T07:55:56.365Z,0.50
2024-05-09T07:56:58.817Z,0.55
2024-05-09T07:58:00.810Z,0.60
2024-05-09T07:59:02.673Z,0.65
2024-05-09T08:00:06.510Z,0.60
2024-05-09T08:01:08.816Z,0.40
2024-05-09T08:02:11.698Z,0.50
2024-05-09T08:03:13.782Z,0.38
2024-05-09T08:04:15.715Z,0.68
2024-05-09T08:05:17.760Z,0.50
2024-05-09T08:06:19.754Z,0.50
2024-05-09T08:07:21.608Z,0.65
2024-05-09T08:08:23.498Z,0.38
2024-05-09T08:09:25.426Z,0.60
2024-05-09T08:10:29.060Z,0.50
2024-05-09T08:11:32.568Z,0.40
2024-05-09T08:12:34.668Z,0.50
2024-05-09T08:13:36.967Z,0.50
2024-05-09T08:14:38.943Z,0.40
2024-05-09T08:15:40.996Z,0.50
2024-05-09T08:16:42.996Z,0.30
2024-05-09T08:17:44.943Z,0.50
2024-05-09T08:18:46.993Z,0.40
2024-05-09T08:19:48.944Z,0.40
2024-05-09T08:20:51.204Z,0.43
2024-05-09T08:21:53.047Z,0.45
2024-05-09T08:22:54.969Z,0.40
2024-05-09T08:23:56.841Z,0.40
2024-05-09T08:24:59.191Z,0.47
2024-05-09T08:26:01.058Z,0.47
2024-05-09T08:27:02.921Z,0.45
2024-05-09T08:28:05.368Z,0.60
2024-05-09T08:29:07.354Z,0.35
2024-05-09T08:30:15.583Z,0.50
2024-05-09T08:31:23.720Z,0.57
2024-05-09T08:32:27.530Z,0.50
2024-05-09T08:33:32.251Z,0.43
2024-05-09T08:34:34.328Z,0.57
2024-05-09T08:35:36.578Z,0.30
2024-05-09T08:36:39.953Z,0.30
2024-05-09T08:37:43.686Z,0.40
2024-05-09T08:38:45.743Z,0.40
2024-05-09T08:39:47.685Z,0.32
2024-05-09T08:40:52.415Z,0.40
2024-05-09T08:41:54.283Z,0.40
2024-05-09T08:42:57.682Z,0.60
2024-05-09T08:43:59.599Z,0.70
2024-05-09T08:45:02.019Z,0.60
2024-05-09T08:46:06.312Z,0.80
2024-05-09T08:47:09.983Z,0.50
2024-05-09T08:48:13.651Z,0.50
2024-05-09T08:49:16.535Z,0.30
2024-05-09T08:50:31.411Z,0.85
2024-05-09T08:51:39.502Z,0.47
2024-05-09T08:52:41.492Z,0.55
2024-05-09T08:53:43.573Z,0.50
2024-05-09T08:54:45.897Z,0.30
2024-05-09T08:55:51.169Z,0.50
2024-05-09T08:56:53.477Z,0.40
2024-05-09T08:57:56.138Z,0.50
2024-05-09T08:59:01.448Z,0.30
2024-05-09T09:00:09.985Z,0.20
2024-05-09T09:01:14.572Z,0.40
2024-05-09T09:02:18.368Z,0.63
2024-05-09T09:03:24.751Z,0.40
2024-05-09T09:04:28.487Z,0.50
2024-05-09T09:05:31.641Z,0.50
2024-05-09T09:06:34.950Z,0.85
2024-05-09T09:07:40.347Z,0.65
2024-05-09T09:08:42.525Z,0.50
2024-05-09T09:09:47.162Z,0.47
2024-05-09T09:10:49.364Z,0.40
2024-05-09T09:11:51.272Z,0.60
2024-05-09T09:13:00.184Z,0.50
2024-05-09T09:14:02.034Z,0.63
2024-05-09T09:15:04.083Z,0.40
2024-05-09T09:16:06.900Z,0.47
2024-05-09T09:17:15.665Z,0.30
2024-05-09T09:18:18.706Z,0.30
2024-05-09T09:19:23.266Z,0.90
2024-05-09T09:20:34.103Z,0.50
2024-05-09T09:21:38.623Z,0.60
2024-05-09T09:22:40.510Z,0.70
2024-05-09T09:23:43.528Z,0.60
2024-05-09T09:24:45.772Z,0.50
2024-05-09T09:25:47.691Z,0.70
2024-05-09T09:26:49.566Z,0.63
2024-05-09T09:27:51.717Z,0.70
2024-05-09T09:28:53.811Z,0.75
2024-05-09T09:29:57.086Z,0.68
2024-05-09T09:31:05.469Z,0.40
2024-05-09T09:32:08.705Z,0.60
2024-05-09T09:33:11.987Z,0.75
2024-05-09T09:34:14.219Z,0.52
2024-05-09T09:35:17.045Z,0.38
2024-05-09T09:36:19.335Z,0.60
2024-05-09T09:37:28.502Z,0.75
2024-05-09T09:38:31.576Z,0.30
2024-05-09T09:39:34.996Z,0.40
2024-05-09T09:40:43.004Z,0.60
2024-05-09T09:41:49.009Z,0.30
2024-05-09T09:42:57.306Z,0.68
2024-05-09T09:44:00.963Z,0.38
2024-05-09T09:45:05.544Z,0.50
2024-05-09T09:46:11.814Z,0.60
2024-05-09T09:47:16.682Z,0.60
2024-05-09T09:48:20.392Z,0.50
2024-05-09T09:49:27.264Z,0.40
2024-05-09T09:50:34.304Z,0.35
2024-05-09T09:51:38.014Z,0.40
2024-05-09T09:52:40.956Z,0.40
2024-05-09T09:53:44.183Z,0.22
2024-05-09T09:54:48.487Z,0.30
2024-05-09T09:55:52.291Z,0.43
2024-05-09T09:56:55.817Z,0.50
2024-05-09T09:57:58.082Z,0.38
2024-05-09T09:59:03.447Z,0.50
2024-05-09T10:00:09.561Z,0.50
2024-05-09T10:01:17.415Z,0.50
2024-05-09T10:02:19.599Z,0.68
2024-05-09T10:03:22.831Z,0.70
2024-05-09T10:04:25.180Z,0.70
2024-05-09T10:05:28.647Z,1.02
2024-05-09T10:06:33.460Z,0.75
2024-05-09T10:07:41.798Z,0.60
2024-05-09T10:08:46.971Z,0.80
2024-05-09T10:09:48.939Z,0.52
2024-05-09T10:10:51.046Z,0.80
2024-05-09T10:11:59.688Z,0.65
2024-05-09T10:13:09.091Z,0.45
2024-05-09T10:14:11.434Z,0.70
2024-05-09T10:15:13.262Z,0.50
2024-05-09T10:16:21.468Z,0.43
2024-05-09T10:17:23.477Z,0.60
2024-05-09T10:18:36.691Z,0.80
2024-05-09T10:19:38.751Z,0.20
2024-05-09T10:20:45.323Z,0.65
2024-05-09T10:21:47.412Z,0.60
2024-05-09T10:22:50.601Z,0.70
2024-05-09T10:24:07.147Z,0.57
2024-05-09T10:25:09.713Z,0.47
2024-05-09T10:26:11.665Z,0.47
2024-05-09T10:27:13.527Z,0.43
2024-05-09T10:28:15.798Z,0.30
2024-05-09T10:29:18.990Z,0.70
2024-05-09T10:31:29.869Z,0.50
2024-05-09T10:32:39.226Z,0.70
2024-05-09T10:33:50.331Z,0.40
2024-05-09T10:35:09.065Z,0.40
2024-05-09T10:36:12.361Z,0.65
2024-05-09T10:37:14.652Z,0.60
2024-05-09T10:38:17.947Z,0.50
2024-05-09T10:39:21.199Z,0.70
2024-05-09T10:40:28.788Z,0.63
2024-05-09T10:41:33.496Z,0.50
2024-05-09T10:42:38.987Z,0.32
2024-05-09T10:43:42.024Z,0.30
2024-05-09T10:44:43.915Z,0.50
2024-05-09T10:45:45.871Z,0.45
2024-05-09T10:46:48.173Z,0.40
2024-05-09T10:47:50.133Z,0.40
2024-05-09T10:48:52.599Z,0.25
2024-05-09T10:49:55.966Z,0.50
2024-05-09T10:50:57.837Z,0.43
2024-05-09T10:51:59.825Z,0.30
2024-05-09T10:53:02.706Z,0.38
2024-05-09T10:54:05.777Z,0.50
2024-05-09T10:55:07.679Z,0.60
2024-05-09T10:56:10.340Z,0.30
2024-05-09T10:57:12.365Z,0.82
2024-05-09T10:58:18.011Z,0.40
2024-05-09T10:59:20.053Z,0.38
2024-05-09T11:00:27.785Z,0.45
2024-05-09T11:01:35.591Z,0.30
2024-05-09T11:02:37.818Z,0.30
2024-05-09T11:03:40.403Z,0.40
2024-05-09T11:04:45.309Z,0.40
2024-05-09T11:05:47.646Z,0.30
2024-05-09T11:06:49.772Z,0.40
2024-05-09T11:07:51.791Z,0.20
2024-05-09T11:08:53.795Z,0.30
2024-05-09T11:09:55.740Z,0.35
2024-05-09T11:10:59.675Z,0.40
2024-05-09T11:12:02.491Z,0.40
2024-05-09T11:13:04.647Z,0.30
2024-05-09T11:14:13.319Z,0.30
2024-05-09T11:15:16.592Z,1.90
2024-05-09T11:16:20.783Z,1.20
2024-05-09T11:17:23.303Z,0.85
2024-05-09T11:18:28.156Z,0.93
2024-05-09T11:19:42.187Z,0.90
2024-05-09T11:20:44.314Z,0.57
2024-05-09T11:21:51.427Z,0.60
2024-05-09T11:22:53.312Z,0.80
2024-05-09T11:23:55.426Z,0.60
2024-05-09T11:24:57.438Z,0.80
2024-05-09T11:25:59.464Z,0.70
2024-05-09T11:27:06.093Z,0.82
2024-05-09T11:28:08.007Z,0.88
2024-05-09T11:29:09.868Z,0.75
2024-05-09T11:30:26.716Z,0.60
2024-05-09T11:31:35.220Z,0.50
2024-05-09T11:32:37.824Z,0.60
2024-05-09T11:33:43.334Z,0.73
2024-05-09T11:34:45.277Z,0.73
2024-05-09T11:35:47.399Z,0.63
2024-05-09T11:36:49.348Z,0.63
2024-05-09T11:37:51.256Z,0.57
2024-05-09T11:38:53.102Z,0.60
2024-05-09T11:39:55.097Z,0.60
2024-05-09T11:40:56.998Z,0.38
2024-05-09T11:41:58.832Z,0.50
2024-05-09T11:43:00.836Z,0.30
2024-05-09T11:44:02.696Z,0.68
2024-05-09T11:45:04.810Z,0.73
2024-05-09T11:46:06.791Z,0.50
2024-05-09T11:47:08.777Z,0.52
2024-05-09T11:48:11.003Z,0.57
2024-05-09T11:49:13.174Z,0.35
2024-05-09T11:50:22.589Z,0.52
2024-05-09T11:51:31.306Z,0.50
2024-05-09T11:52:33.235Z,0.52
2024-05-09T11:53:35.055Z,0.40
2024-05-09T11:54:37.242Z,0.30
2024-05-09T11:55:39.089Z,0.60
2024-05-09T11:56:41.003Z,0.40
2024-05-09T11:57:42.918Z,0.40
2024-05-09T11:58:44.785Z,0.43
2024-05-09T11:59:46.878Z,0.40
2024-05-09T12:00:48.947Z,0.43
2024-05-09T12:01:50.915Z,0.22
2024-05-09T12:02:54.357Z,0.30
2024-05-09T12:03:56.481Z,0.40
2024-05-09T12:04:58.685Z,0.47
2024-05-09T12:06:01.306Z,0.50
2024-05-09T12:07:03.470Z,0.30
2024-05-09T12:08:06.184Z,0.47
2024-05-09T12:09:08.170Z,0.43
2024-05-09T12:10:16.550Z,0.60
2024-05-09T12:11:22.264Z,0.63
2024-05-09T12:12:24.156Z,0.57
2024-05-09T12:13:26.115Z,0.40
2024-05-09T12:14:28.009Z,0.30
2024-05-09T12:15:29.972Z,0.45
2024-05-09T12:16:32.133Z,0.55
2024-05-09T12:17:34.262Z,0.52
2024-05-09T12:18:36.302Z,0.40
2024-05-09T12:19:38.369Z,0.35
2024-05-09T12:20:40.462Z,0.30
2024-05-09T12:21:42.519Z,0.38
2024-05-09T12:22:44.446Z,0.30
2024-05-09T12:23:46.279Z,0.38
2024-05-09T12:24:48.221Z,0.25
2024-05-09T12:25:50.180Z,0.45
2024-05-09T12:26:52.081Z,0.30
2024-05-09T12:27:54.200Z,0.38
2024-05-09T12:28:56.087Z,0.50
2024-05-09T12:29:57.926Z,0.40
2024-05-09T12:30:59.840Z,0.30
2024-05-09T12:32:01.724Z,0.30
2024-05-09T12:33:03.928Z,0.40
2024-05-09T12:34:05.933Z,0.30
2024-05-09T12:35:07.974Z,0.50
2024-05-09T12:36:09.948Z,0.50
2024-05-09T12:37:12.328Z,0.50
2024-05-09T12:38:15.534Z,0.80
2024-05-09T12:39:17.603Z,0.75
2024-05-09T12:40:26.790Z,0.60
2024-05-09T12:41:36.491Z,0.80
2024-05-09T12:42:38.340Z,0.85
2024-05-09T12:43:40.256Z,0.65
2024-05-09T12:44:42.113Z,0.70
2024-05-09T12:45:44.024Z,0.77
2024-05-09T12:46:45.990Z,0.85
2024-05-09T12:47:48.802Z,0.95
2024-05-09T12:48:50.899Z,0.80
2024-05-09T12:49:53.347Z,0.98
2024-05-09T12:50:57.654Z,0.90
2024-05-09T12:51:59.650Z,1.00
2024-05-09T12:53:03.067Z,0.93
2024-05-09T12:54:05.771Z,0.80
2024-05-09T12:55:07.854Z,1.20
2024-05-09T12:56:10.096Z,0.80
2024-05-09T12:57:12.038Z,0.90
2024-05-09T12:58:14.267Z,1.10
2024-05-09T12:59:16.176Z,0.95
2024-05-09T13:00:24.001Z,0.88
2024-05-09T13:01:33.095Z,0.90
2024-05-09T13:02:35.274Z,1.00
2024-05-09T13:03:37.360Z,1.02
2024-05-09T13:04:39.595Z,1.00
2024-05-09T13:05:42.133Z,1.05
2024-05-09T13:06:44.187Z,1.10
2024-05-09T13:07:47.080Z,1.10
2024-05-09T13:08:48.920Z,1.50
2024-05-09T13:09:50.838Z,1.25
2024-05-09T13:10:52.953Z,1.05
2024-05-09T13:11:54.884Z,1.00
2024-05-09T13:12:56.718Z,1.02
2024-05-09T13:13:58.804Z,1.13
2024-05-09T13:15:00.684Z,1.00
2024-05-09T13:16:02.624Z,1.00
2024-05-09T13:17:05.406Z,1.10
2024-05-09T13:18:07.654Z,1.10
2024-05-09T13:19:09.701Z,1.08
2024-05-09T13:20:18.929Z,1.05
2024-05-09T13:21:28.184Z,1.23
2024-05-09T13:22:30.157Z,1.10
2024-05-09T13:23:31.987Z,0.85
2024-05-09T13:24:33.861Z,1.02
2024-05-09T13:25:38.596Z,1.00
2024-05-09T13:26:40.526Z,1.00
2024-05-09T13:27:42.498Z,1.00
2024-05-09T13:28:44.404Z,1.23
2024-05-09T13:29:46.233Z,0.77
2024-05-09T13:30:48.275Z,0.75
2024-05-09T13:31:50.196Z,1.05
2024-05-09T13:32:53.281Z,1.00
2024-05-09T13:33:55.324Z,0.80
2024-05-09T13:34:57.343Z,0.98
2024-05-09T13:35:59.235Z,1.17
2024-05-09T13:37:01.213Z,1.02
2024-05-09T13:38:04.476Z,0.93
2024-05-09T13:39:07.193Z,0.75
2024-05-09T13:40:12.128Z,0.95
2024-05-09T13:41:16.055Z,0.77
2024-05-09T13:42:17.916Z,0.77
2024-05-09T13:43:22.205Z,0.80
2024-05-09T13:44:24.187Z,0.70
2024-05-09T13:45:26.093Z,0.90
2024-05-09T13:46:28.125Z,0.93
2024-05-09T13:47:30.282Z,0.80
2024-05-09T13:48:32.345Z,0.95
2024-05-09T13:49:34.310Z,0.80
2024-05-09T13:50:37.139Z,1.15
2024-05-09T13:51:39.188Z,0.90
2024-05-09T13:52:41.044Z,0.95
2024-05-09T13:53:42.916Z,0.80
2024-05-09T13:54:44.839Z,1.00
2024-05-09T13:55:47.199Z,1.05
2024-05-09T13:56:49.082Z,0.80
2024-05-09T13:57:50.918Z,0.93
2024-05-09T13:58:52.779Z,0.90
2024-05-09T13:59:54.670Z,0.90
2024-05-09T14:00:56.739Z,0.98
2024-05-09T14:01:58.885Z,0.70
2024-05-09T14:03:00.952Z,0.65
2024-05-09T14:04:03.067Z,0.80
2024-05-09T14:05:05.758Z,0.93
2024-05-09T14:06:11.295Z,1.00
2024-05-09T14:07:14.868Z,0.80
2024-05-09T14:08:19.784Z,0.80
2024-05-09T14:09:22.230Z,0.95